createdAt,value
2019-02-28T00:01:21.124Z,35.10
2019-02-28T00:03:53.151Z,36.00
2019-02-28T00:06:24.747Z,33.33
2019-02-28T00:08:56.228Z,31.10
2019-02-28T00:11:28.592Z,34.50
2019-02-28T00:14:00.385Z,37.23
2019-02-28T00:16:35.653Z,35.87
2019-02-28T00:19:05.145Z,36.40
2019-02-28T00:21:37.378Z,36.33
2019-02-28T00:24:09.792Z,32.47
2019-02-28T00:26:46.312Z,32.73
2019-02-28T00:29:13.817Z,34.70
2019-02-28T00:31:49.428Z,32.17
2019-02-28T00:34:18.615Z,35.20
2019-02-28T00:36:53.396Z,35.37
2019-02-28T00:39:25.233Z,33.37
2019-02-28T00:41:56.503Z,33.17
2019-02-28T00:44:30.479Z,34.43
2019-02-28T00:47:00.424Z,36.97
2019-02-28T00:49:31.435Z,34.80
2019-02-28T00:52:02.755Z,35.77
2019-02-28T00:54:34.373Z,33.27
2019-02-28T00:57:07.280Z,34.53
2019-02-28T00:59:39.468Z,35.17
2019-02-28T01:02:11.290Z,35.30
2019-02-28T01:04:42.772Z,37.17
2019-02-28T01:07:16.218Z,35.67
2019-02-28T01:09:47.508Z,36.47
2019-02-28T01:12:19.951Z,38.47
2019-02-28T01:14:51.954Z,34.00
2019-02-28T01:17:26.736Z,35.23
2019-02-28T01:19:59.237Z,35.47
2019-02-28T01:22:31.035Z,35.13
2019-02-28T01:25:02.446Z,36.97
2019-02-28T01:27:34.299Z,37.23
2019-02-28T01:30:06.719Z,36.93
2019-02-28T01:32:39.432Z,37.60
2019-02-28T01:35:10.908Z,39.40
2019-02-28T01:37:42.580Z,36.37
2019-02-28T01:40:15.952Z,38.13
2019-02-28T01:42:47.703Z,39.73
2019-02-28T01:45:19.150Z,38.00
2019-02-28T01:47:52.378Z,34.23
2019-02-28T01:50:24.589Z,36.63
2019-02-28T01:52:56.867Z,35.90
2019-02-28T01:55:29.395Z,34.70
2019-02-28T01:58:02.434Z,35.60
2019-02-28T02:00:33.466Z,34.60
2019-02-28T02:03:04.396Z,36.40
2019-02-28T02:05:35.667Z,36.07
2019-02-28T02:08:07.732Z,33.63
2019-02-28T02:10:39.308Z,37.40
2019-02-28T02:13:11.024Z,35.67
2019-02-28T02:15:42.478Z,36.13
2019-02-28T02:18:14.466Z,33.73
2019-02-28T02:20:46.441Z,35.10
2019-02-28T02:23:19.435Z,37.03
2019-02-28T02:25:50.586Z,35.70
2019-02-28T02:28:26.904Z,31.13
2019-02-28T02:30:56.410Z,36.90
2019-02-28T02:33:28.191Z,35.17
2019-02-28T02:36:00.398Z,35.57
2019-02-28T02:38:39.744Z,34.73
2019-02-28T02:41:05.443Z,33.90
2019-02-28T02:43:37.020Z,35.50
2019-02-28T02:46:08.185Z,34.67
2019-02-28T02:48:42.280Z,39.43
2019-02-28T02:51:13.368Z,39.43
2019-02-28T02:53:44.994Z,36.00
2019-02-28T02:56:16.622Z,36.67
2019-02-28T02:58:50.795Z,36.00
2019-02-28T03:01:23.156Z,38.03
2019-02-28T03:03:54.326Z,38.97
2019-02-28T03:06:25.834Z,40.40
2019-02-28T03:08:57.404Z,38.97
2019-02-28T03:11:29.017Z,36.97
2019-02-28T03:14:00.443Z,39.60
2019-02-28T03:16:33.003Z,41.30
2019-02-28T03:19:04.509Z,40.60
2019-02-28T03:21:36.156Z,37.50
2019-02-28T03:24:14.729Z,38.70
2019-02-28T03:26:41.840Z,37.97
2019-02-28T03:29:13.795Z,39.20
2019-02-28T03:31:55.239Z,40.07
2019-02-28T03:34:18.624Z,38.50
2019-02-28T03:36:55.280Z,42.50
2019-02-28T03:39:25.653Z,41.63
2019-02-28T03:41:57.818Z,43.40
2019-02-28T03:44:28.989Z,42.27
2019-02-28T03:47:00.883Z,44.70
2019-02-28T03:49:32.667Z,38.30
2019-02-28T03:52:06.608Z,55.30
2019-02-28T03:54:38.586Z,42.60
2019-02-28T03:57:09.372Z,42.97
2019-02-28T03:59:41.758Z,36.80
2019-02-28T04:02:12.737Z,35.00
2019-02-28T04:04:48.811Z,37.00
2019-02-28T04:07:17.078Z,35.60
2019-02-28T04:09:49.548Z,38.17
2019-02-28T04:12:21.287Z,39.70
2019-02-28T04:14:52.927Z,38.20
2019-02-28T04:17:29.833Z,37.20
2019-02-28T04:20:00.092Z,32.70
2019-02-28T04:22:31.991Z,33.70
2019-02-28T04:25:03.279Z,30.90
2019-02-28T04:27:40.446Z,29.40
2019-02-28T04:30:11.793Z,31.97
2019-02-28T04:32:43.593Z,37.40
2019-02-28T04:35:15.575Z,31.33
2019-02-28T04:37:47.339Z,27.30
2019-02-28T04:40:18.705Z,31.17
2019-02-28T04:42:50.325Z,32.17
2019-02-28T04:45:23.332Z,26.83
2019-02-28T04:47:54.572Z,24.40
2019-02-28T04:50:31.301Z,24.10
2019-02-28T04:52:58.279Z,25.10
2019-02-28T04:55:30.659Z,23.57
2019-02-28T04:58:02.558Z,22.70
2019-02-28T05:00:33.767Z,24.17
2019-02-28T05:03:05.904Z,24.37
2019-02-28T05:05:37.716Z,26.87
2019-02-28T05:08:09.624Z,24.97
2019-02-28T05:10:41.286Z,27.73
2019-02-28T05:13:14.994Z,21.77
2019-02-28T05:15:47.465Z,24.33
2019-02-28T05:18:18.962Z,24.63
2019-02-28T05:20:49.796Z,22.77
2019-02-28T05:23:21.582Z,22.77
2019-02-28T05:25:54.146Z,20.23
2019-02-28T05:28:25.558Z,21.77
2019-02-28T05:30:57.008Z,19.57
2019-02-28T05:33:28.249Z,19.43
2019-02-28T05:36:00.262Z,18.10
2019-02-28T05:38:32.751Z,17.60
2019-02-28T05:41:04.267Z,18.90
2019-02-28T05:43:35.549Z,17.80
2019-02-28T05:46:06.729Z,18.43
2019-02-28T05:48:39.401Z,18.50
2019-02-28T05:51:11.231Z,18.63
2019-02-28T05:53:42.713Z,17.87
2019-02-28T05:56:13.769Z,17.17
2019-02-28T05:58:45.545Z,20.30
2019-02-28T06:01:17.169Z,17.97
2019-02-28T06:03:50.053Z,18.53
2019-02-28T06:06:22.154Z,18.13
2019-02-28T06:08:53.687Z,17.87
2019-02-28T06:11:25.752Z,17.40
2019-02-28T06:13:57.221Z,19.10
2019-02-28T06:16:28.629Z,19.10
2019-02-28T06:19:00.361Z,18.13
2019-02-28T06:21:31.640Z,18.90
2019-02-28T06:24:03.266Z,18.63
2019-02-28T06:26:36.086Z,18.77
2019-02-28T06:29:07.918Z,20.13
2019-02-28T06:31:40.215Z,19.40
2019-02-28T06:34:13.245Z,18.77
2019-02-28T06:36:44.756Z,18.97
2019-02-28T06:39:17.593Z,18.13
2019-02-28T06:41:48.945Z,18.47
2019-02-28T06:44:20.525Z,18.87
2019-02-28T06:46:52.512Z,21.20
2019-02-28T06:49:24.276Z,17.63
2019-02-28T06:51:56.259Z,19.07
2019-02-28T06:54:35.302Z,19.40
2019-02-28T06:57:27.440Z,17.87
2019-02-28T06:59:59.357Z,18.80
2019-02-28T07:02:31.494Z,18.97
2019-02-28T07:05:04.080Z,17.97
2019-02-28T07:07:36.374Z,18.53
2019-02-28T07:10:09.618Z,19.87
2019-02-28T07:12:42.159Z,18.70
2019-02-28T07:15:13.639Z,18.40
2019-02-28T07:17:46.520Z,17.07
2019-02-28T07:20:18.279Z,19.37
2019-02-28T07:22:54.369Z,18.10
2019-02-28T07:25:23.075Z,17.70
2019-02-28T07:27:54.339Z,17.80
2019-02-28T07:30:26.647Z,19.23
2019-02-28T07:32:58.529Z,19.67
2019-02-28T07:35:34.051Z,19.33
2019-02-28T07:38:08.083Z,20.10
2019-02-28T07:40:39.494Z,19.43
2019-02-28T07:43:27.877Z,19.50
2019-02-28T07:46:00.165Z,19.40
2019-02-28T07:48:32.483Z,20.60
2019-02-28T07:51:03.644Z,20.30
2019-02-28T07:53:35.991Z,19.00
2019-02-28T07:56:08.594Z,20.37
2019-02-28T07:58:40.028Z,20.37
2019-02-28T08:01:12.197Z,21.97
2019-02-28T08:03:44.773Z,23.03
2019-02-28T08:06:16.342Z,20.30
2019-02-28T08:08:48.124Z,23.27
2019-02-28T08:11:20.860Z,23.90
2019-02-28T08:13:52.791Z,23.27
2019-02-28T08:16:24.401Z,23.17
2019-02-28T08:18:55.631Z,23.00
2019-02-28T08:21:27.241Z,26.37
2019-02-28T08:23:58.249Z,24.30
2019-02-28T08:26:29.754Z,23.10
2019-02-28T08:29:07.810Z,25.00
2019-02-28T08:31:38.161Z,23.03
2019-02-28T08:34:09.530Z,23.70
2019-02-28T08:36:43.875Z,24.33
2019-02-28T08:39:16.850Z,25.30
2019-02-28T08:41:49.633Z,25.57
2019-02-28T08:44:23.834Z,26.17
2019-02-28T08:46:54.553Z,27.10
2019-02-28T08:49:26.864Z,27.27
2019-02-28T08:52:02.501Z,27.27
2019-02-28T08:54:33.284Z,28.33
2019-02-28T08:57:05.189Z,27.27
2019-02-28T08:59:37.164Z,27.40
2019-02-28T09:02:08.046Z,28.40
2019-02-28T09:04:41.438Z,28.80
2019-02-28T09:07:15.241Z,28.67
2019-02-28T09:09:46.187Z,31.90
2019-02-28T09:12:17.474Z,28.77
2019-02-28T09:14:48.772Z,29.43
2019-02-28T09:17:20.424Z,30.83
2019-02-28T09:19:53.552Z,30.40
2019-02-28T09:22:27.272Z,31.67
2019-02-28T09:24:57.471Z,30.10
2019-02-28T09:27:28.279Z,31.40
2019-02-28T09:29:59.488Z,32.20
2019-02-28T09:32:30.521Z,29.60
2019-02-28T09:35:05.742Z,33.73
2019-02-28T09:37:36.417Z,33.20
2019-02-28T09:40:08.593Z,31.07
2019-02-28T09:42:40.189Z,30.80
2019-02-28T09:45:14.431Z,31.30
2019-02-28T09:47:46.030Z,36.17
2019-02-28T09:50:22.434Z,31.33
2019-02-28T09:52:54.201Z,29.70
2019-02-28T09:55:25.847Z,29.47
2019-02-28T09:57:58.279Z,30.93
2019-02-28T10:00:30.499Z,29.67
2019-02-28T10:03:02.761Z,29.57
2019-02-28T10:05:38.677Z,29.20
2019-02-28T10:08:08.593Z,28.53
2019-02-28T10:10:41.057Z,29.53
2019-02-28T10:13:14.586Z,30.60
2019-02-28T10:15:46.567Z,30.53
2019-02-28T10:18:17.310Z,32.93
2019-02-28T10:20:49.055Z,32.50
2019-02-28T10:23:21.512Z,31.00
2019-02-28T10:25:54.224Z,31.93
2019-02-28T10:28:25.895Z,31.63
2019-02-28T10:30:57.563Z,29.93
2019-02-28T10:33:29.049Z,27.97
2019-02-28T10:36:01.643Z,28.57
2019-02-28T10:38:33.915Z,28.20
2019-02-28T10:41:08.557Z,25.37
2019-02-28T10:43:39.647Z,27.00
2019-02-28T10:46:13.344Z,27.53
2019-02-28T10:48:50.698Z,27.93
2019-02-28T10:51:16.271Z,26.10
2019-02-28T10:53:47.201Z,27.40
2019-02-28T10:56:18.198Z,26.47
2019-02-28T10:58:50.161Z,27.63
2019-02-28T11:01:22.685Z,26.47
2019-02-28T11:03:53.756Z,26.20
2019-02-28T11:06:28.057Z,26.30
2019-02-28T11:08:58.323Z,26.80
2019-02-28T11:11:29.791Z,27.17
2019-02-28T11:14:03.908Z,25.60
2019-02-28T11:16:33.707Z,23.63
2019-02-28T11:19:05.459Z,25.40
2019-02-28T11:21:36.664Z,25.20
2019-02-28T11:24:07.986Z,25.47
2019-02-28T11:26:44.740Z,26.83
2019-02-28T11:29:15.683Z,26.10
2019-02-28T11:31:46.999Z,26.73
2019-02-28T11:34:18.847Z,26.43
2019-02-28T11:36:50.401Z,24.80
2019-02-28T11:39:22.790Z,23.77
2019-02-28T11:41:54.435Z,25.87
2019-02-28T11:44:26.068Z,24.97
2019-02-28T11:46:57.869Z,24.13
2019-02-28T11:49:29.485Z,24.30
2019-02-28T11:52:00.887Z,24.70
2019-02-28T11:54:31.865Z,23.50
2019-02-28T11:57:08.745Z,22.90
2019-02-28T11:59:40.589Z,21.73
2019-02-28T12:02:12.443Z,23.30
2019-02-28T12:04:44.354Z,23.43
2019-02-28T12:07:15.928Z,22.97
2019-02-28T12:09:51.382Z,18.60
2019-02-28T12:12:21.288Z,19.80
2019-02-28T12:14:53.533Z,18.87
2019-02-28T12:17:28.326Z,20.13
2019-02-28T12:19:59.096Z,20.70
2019-02-28T12:22:30.342Z,18.60
2019-02-28T12:25:04.482Z,18.77
2019-02-28T12:27:34.790Z,18.77
2019-02-28T12:30:08.311Z,19.50
2019-02-28T12:32:40.352Z,20.43
2019-02-28T12:35:12.871Z,22.50
2019-02-28T12:37:46.050Z,20.50
2019-02-28T12:40:19.562Z,24.07
2019-02-28T12:42:50.668Z,24.33
2019-02-28T12:45:25.191Z,25.90
2019-02-28T12:47:56.492Z,23.83
2019-02-28T12:50:29.417Z,21.00
2019-02-28T12:53:01.691Z,20.53
2019-02-28T12:55:35.503Z,21.37
2019-02-28T12:58:07.117Z,21.90
2019-02-28T13:00:39.689Z,20.97
2019-02-28T13:03:12.122Z,21.20
2019-02-28T13:05:47.824Z,21.70
2019-02-28T13:08:17.356Z,21.70
2019-02-28T13:10:49.300Z,22.00
2019-02-28T13:13:27.493Z,22.37
2019-02-28T13:15:54.667Z,23.10
2019-02-28T13:18:26.743Z,22.33
2019-02-28T13:20:58.511Z,24.33
2019-02-28T13:23:33.159Z,25.03
2019-02-28T13:26:05.694Z,24.93
2019-02-28T13:28:41.071Z,23.67
2019-02-28T13:31:12.281Z,25.43
2019-02-28T13:33:43.444Z,23.80
2019-02-28T13:36:14.458Z,23.60
2019-02-28T13:38:46.486Z,25.80
2019-02-28T13:41:21.726Z,24.03
2019-02-28T13:43:54.729Z,24.20
2019-02-28T13:46:32.393Z,25.43
2019-02-28T13:48:59.857Z,21.97
2019-02-28T13:51:32.767Z,24.17
2019-02-28T13:54:06.501Z,24.03
2019-02-28T13:56:38.482Z,24.20
2019-02-28T13:59:10.083Z,22.93
2019-02-28T14:01:41.637Z,25.67
2019-02-28T14:04:13.669Z,25.00
2019-02-28T14:06:46.027Z,25.20
2019-02-28T14:09:18.852Z,23.93
2019-02-28T14:11:52.003Z,25.40
2019-02-28T14:14:23.553Z,24.93
2019-02-28T14:16:58.271Z,25.43
2019-02-28T14:19:29.155Z,24.00
2019-02-28T14:22:00.844Z,23.37
2019-02-28T14:24:32.895Z,22.30
2019-02-28T14:27:04.286Z,23.73
2019-02-28T14:29:36.642Z,21.67
2019-02-28T14:32:08.385Z,21.90
2019-02-28T14:34:40.399Z,22.90
2019-02-28T14:37:12.231Z,26.80
2019-02-28T14:39:44.085Z,21.80
2019-02-28T14:42:15.925Z,21.73
2019-02-28T14:44:48.084Z,23.50
2019-02-28T14:47:24.912Z,23.87
2019-02-28T14:49:55.481Z,22.10
2019-02-28T14:52:27.773Z,21.90
2019-02-28T14:54:59.234Z,24.30
2019-02-28T14:57:30.843Z,24.93
2019-02-28T15:00:06.304Z,24.30
2019-02-28T15:02:37.146Z,24.40
2019-02-28T15:05:09.925Z,25.57
2019-02-28T15:07:42.142Z,26.47
2019-02-28T15:10:15.731Z,25.20
2019-02-28T15:12:47.124Z,24.10
2019-02-28T15:15:20.427Z,24.30
2019-02-28T15:17:53.572Z,24.17
2019-02-28T15:20:31.505Z,20.93
2019-02-28T15:23:01.004Z,23.03
2019-02-28T15:25:32.887Z,24.40
2019-02-28T15:28:05.756Z,23.73
2019-02-28T15:30:38.189Z,22.40
2019-02-28T15:33:11.212Z,21.20
2019-02-28T15:35:43.181Z,20.43
2019-02-28T15:38:19.613Z,22.43
2019-02-28T15:40:50.924Z,22.40
2019-02-28T15:43:23.302Z,22.40
2019-02-28T15:45:56.272Z,22.20
2019-02-28T15:48:31.413Z,23.03
2019-02-28T15:51:03.638Z,24.17
2019-02-28T15:53:35.391Z,25.30
2019-02-28T15:56:13.233Z,25.43
2019-02-28T15:58:42.350Z,25.67
2019-02-28T16:01:15.477Z,28.90
2019-02-28T16:03:48.441Z,27.53
2019-02-28T16:06:21.838Z,26.00
2019-02-28T16:08:54.436Z,24.80
2019-02-28T16:11:27.352Z,28.97
2019-02-28T16:14:00.500Z,25.00
2019-02-28T16:16:33.642Z,25.53
2019-02-28T16:19:06.555Z,26.20
2019-02-28T16:21:41.614Z,28.20
2019-02-28T16:24:14.435Z,32.13
2019-02-28T16:26:48.027Z,26.73
2019-02-28T16:29:21.368Z,32.03
2019-02-28T16:31:54.748Z,34.83
2019-02-28T16:34:27.085Z,49.90
2019-02-28T16:37:01.006Z,38.43
2019-02-28T16:39:33.606Z,32.33
2019-02-28T16:42:08.342Z,37.67
2019-02-28T16:44:39.868Z,35.17
2019-02-28T16:47:12.830Z,37.27
2019-02-28T16:49:45.615Z,28.40
2019-02-28T16:52:18.330Z,27.80
2019-02-28T16:54:53.379Z,29.27
2019-02-28T16:57:27.040Z,30.73
2019-02-28T17:00:04.026Z,27.50
2019-02-28T17:02:35.082Z,31.67
2019-02-28T17:05:08.044Z,31.03
2019-02-28T17:07:43.579Z,31.60
2019-02-28T17:10:18.080Z,28.77
2019-02-28T17:13:08.946Z,29.73
2019-02-28T17:15:48.701Z,30.40
2019-02-28T17:18:22.587Z,32.23
2019-02-28T17:20:55.441Z,29.63
2019-02-28T17:23:28.130Z,30.17
2019-02-28T17:26:01.824Z,29.00
2019-02-28T17:28:49.366Z,31.53
2019-02-28T17:31:44.626Z,30.93
2019-02-28T17:34:23.805Z,31.43
2019-02-28T17:36:55.571Z,32.00
2019-02-28T17:39:28.487Z,33.80
2019-02-28T17:42:08.289Z,35.67
2019-02-28T17:45:20.091Z,33.47
2019-02-28T17:48:24.568Z,31.80
2019-02-28T17:51:22.748Z,32.00
2019-02-28T17:54:32.957Z,34.63
2019-02-28T17:57:41.665Z,33.23
2019-02-28T18:00:30.609Z,35.10
2019-02-28T18:03:49.430Z,36.57
2019-02-28T18:07:01.002Z,35.67
2019-02-28T18:09:51.454Z,35.73
2019-02-28T18:13:00.171Z,35.20
2019-02-28T18:16:03.866Z,37.50
2019-02-28T18:19:18.147Z,36.20
2019-02-28T18:22:21.825Z,33.40
2019-02-28T18:25:48.689Z,35.27
2019-02-28T18:29:06.964Z,35.30
2019-02-28T18:31:41.930Z,35.13
2019-02-28T18:34:25.003Z,36.80
2019-02-28T18:36:57.447Z,37.13
2019-02-28T18:39:30.390Z,36.67
2019-02-28T18:42:02.643Z,35.60
2019-02-28T18:44:37.340Z,36.17
2019-02-28T18:47:10.207Z,36.57
2019-02-28T18:49:43.646Z,36.23
2019-02-28T18:52:15.881Z,37.57
2019-02-28T18:54:49.162Z,39.43
2019-02-28T18:57:22.435Z,37.60
2019-02-28T18:59:56.407Z,36.57
2019-02-28T19:02:29.208Z,42.50
2019-02-28T19:05:02.084Z,37.90
2019-02-28T19:07:34.841Z,36.80
2019-02-28T19:10:09.027Z,36.40
2019-02-28T19:12:42.288Z,34.60
2019-02-28T19:15:16.974Z,39.13
2019-02-28T19:17:50.003Z,34.30
2019-02-28T19:20:26.359Z,32.93
2019-02-28T19:22:59.360Z,37.73
2019-02-28T19:25:32.228Z,34.70
2019-02-28T19:28:06.211Z,36.23
2019-02-28T19:30:40.387Z,36.60
2019-02-28T19:33:13.115Z,33.93
2019-02-28T19:35:46.232Z,33.53
2019-02-28T19:38:20.709Z,36.30
2019-02-28T19:40:55.352Z,34.30
2019-02-28T19:43:27.908Z,35.80
2019-02-28T19:46:00.676Z,33.93
2019-02-28T19:48:34.430Z,35.60
2019-02-28T19:51:06.904Z,37.87
2019-02-28T19:53:39.580Z,40.10
2019-02-28T19:56:13.122Z,42.67
2019-02-28T19:58:46.196Z,39.90
2019-02-28T20:01:20.963Z,40.30
2019-02-28T20:03:55.147Z,39.87
2019-02-28T20:06:27.681Z,41.30
2019-02-28T20:09:00.329Z,40.83
2019-02-28T20:11:33.409Z,39.77
2019-02-28T20:14:05.674Z,41.13
2019-02-28T20:16:38.588Z,38.80
2019-02-28T20:19:12.137Z,40.73
2019-02-28T20:21:47.211Z,43.83
2019-02-28T20:24:24.439Z,38.57
2019-02-28T20:26:58.082Z,39.53
2019-02-28T20:29:30.788Z,39.13
2019-02-28T20:32:03.807Z,40.23
2019-02-28T20:34:36.362Z,39.47
2019-02-28T20:37:09.325Z,38.70
2019-02-28T20:39:41.675Z,40.63
2019-02-28T20:42:14.137Z,35.63
2019-02-28T20:44:47.318Z,36.20
2019-02-28T20:47:20.597Z,38.60
2019-02-28T20:49:54.353Z,40.10
2019-02-28T20:52:28.046Z,42.03
2019-02-28T20:55:01.432Z,48.27
2019-02-28T20:57:34.372Z,53.30
2019-02-28T21:00:07.590Z,51.27
2019-02-28T21:02:41.427Z,55.20
2019-02-28T21:05:14.479Z,52.90
2019-02-28T21:07:48.216Z,58.60
2019-02-28T21:10:20.029Z,54.30
2019-02-28T21:12:52.584Z,52.97
2019-02-28T21:15:25.186Z,55.77
2019-02-28T21:21:06.615Z,58.87
2019-02-28T21:23:38.986Z,62.60
2019-02-28T21:26:11.209Z,57.60
2019-02-28T21:28:43.600Z,55.90
2019-02-28T21:31:16.292Z,54.83
2019-02-28T21:33:48.947Z,54.77
2019-02-28T21:36:20.990Z,52.47
2019-02-28T21:38:53.213Z,52.60
2019-02-28T21:41:26.719Z,54.30
2019-02-28T21:44:00.187Z,52.90
2019-02-28T21:46:31.559Z,56.40
2019-02-28T21:49:03.450Z,54.93
2019-02-28T21:51:35.133Z,56.53
2019-02-28T21:54:06.298Z,52.30
2019-02-28T21:56:37.502Z,52.37
2019-02-28T21:59:10.217Z,53.03
2019-02-28T22:01:44.443Z,56.23
2019-02-28T22:04:15.815Z,53.30
2019-02-28T22:06:47.677Z,57.20
2019-02-28T22:09:18.500Z,59.17
2019-02-28T22:11:50.038Z,58.77
2019-02-28T22:14:21.644Z,58.97
2019-02-28T22:16:52.941Z,54.70
2019-02-28T22:19:23.846Z,57.60
2019-02-28T22:21:55.723Z,58.17
2019-02-28T22:24:27.251Z,55.07
2019-02-28T22:26:58.528Z,57.03
2019-02-28T22:29:31.078Z,55.13
2019-02-28T22:32:24.411Z,56.50
2019-02-28T22:35:06.232Z,58.30
2019-02-28T22:37:38.721Z,56.93
2019-02-28T22:40:10.468Z,54.93
2019-02-28T22:42:43.487Z,57.67
2019-02-28T22:45:17.521Z,59.83
2019-02-28T22:47:49.145Z,54.27
2019-02-28T22:50:20.504Z,54.37
2019-02-28T22:52:53.685Z,57.80
2019-02-28T22:55:25.185Z,55.30
2019-02-28T22:57:56.342Z,56.83
2019-02-28T23:01:09.705Z,58.20
2019-02-28T23:03:41.920Z,57.10
2019-02-28T23:06:13.352Z,56.93
2019-02-28T23:08:44.884Z,57.27
2019-02-28T23:11:17.164Z,56.20
2019-02-28T23:13:49.984Z,55.60
2019-02-28T23:16:21.400Z,53.60
2019-02-28T23:18:53.374Z,50.37
2019-02-28T23:21:24.832Z,52.37
2019-02-28T23:23:56.594Z,56.90
2019-02-28T23:26:29.350Z,53.60
2019-02-28T23:29:15.652Z,52.60
2019-02-28T23:32:33.866Z,50.23
2019-02-28T23:35:06.003Z,50.90
2019-02-28T23:37:37.271Z,50.17
2019-02-28T23:40:08.922Z,50.87
2019-02-28T23:42:40.039Z,49.97
2019-02-28T23:45:14.047Z,51.63
2019-02-28T23:47:45.641Z,50.33
2019-02-28T23:50:16.346Z,52.17
2019-02-28T23:52:48.372Z,51.37
2019-02-28T23:55:19.509Z,52.00
2019-02-28T23:57:50.732Z,51.40
